Time;durP1;ratioP1;P1;durP2;ratioP2;P2;SDS_P1;SDS_P2;PMS_P1;PMS_P2;Temp;Humidity;BMP_temperature;BMP_pressure;BME280_temperature;BME280_humidity;BME280_pressure;Samples;Min_cycle;Max_cycle;Signal;HPM_P1;HPM_P2
2021/03/27 00:02:11;;;;;;;8.83;6.47;;;12.00;98.70;;;;;;5051429;28;20494;-73
2021/03/27 00:04:42;;;;;;;6.77;6.07;;;12.00;98.90;;;;;;5051020;28;20527;-73
2021/03/27 00:07:16;;;;;;;6.73;6.03;;;12.00;99.20;;;;;;5051164;28;20542;-73
2021/03/27 00:09:47;;;;;;;8.53;6.33;;;11.90;99.30;;;;;;5045202;28;21509;-73
2021/03/27 00:12:27;;;;;;;9.13;6.50;;;11.90;99.10;;;;;;5050925;28;20469;-73
2021/03/27 00:14:58;;;;;;;10.73;7.07;;;12.00;99.10;;;;;;5050555;28;20865;-73
2021/03/27 00:17:39;;;;;;;7.50;6.70;;;12.00;99.20;;;;;;5050197;28;20550;-72
2021/03/27 00:20:13;;;;;;;6.30;5.70;;;12.00;99.20;;;;;;5050248;28;20986;-73
2021/03/27 00:22:47;;;;;;;7.60;6.10;;;12.00;99.20;;;;;;5051058;28;20560;-73
2021/03/27 00:25:18;;;;;;;6.27;5.67;;;12.20;99.40;;;;;;5050813;28;20535;-72
2021/03/27 00:27:48;;;;;;;11.60;6.17;;;12.30;99.90;;;;;;5050540;28;20464;-72
2021/03/27 00:30:20;;;;;;;7.30;5.33;;;12.40;99.90;;;;;;5049541;28;20483;-73
2021/03/27 00:32:51;;;;;;;8.00;5.83;;;12.50;99.80;;;;;;5050955;28;20845;-74
2021/03/27 00:35:25;;;;;;;8.10;5.07;;;12.60;99.70;;;;;;5050642;28;20495;-73
2021/03/27 00:37:53;;;;;;;6.80;5.13;;;12.60;99.70;;;;;;5050354;28;20491;-74
2021/03/27 00:40:24;;;;;;;7.07;5.30;;;12.60;99.60;;;;;;5053227;28;20523;-72
2021/03/27 00:42:58;;;;;;;5.73;5.00;;;12.70;99.50;;;;;;5050216;28;20472;-74
2021/03/27 00:45:28;;;;;;;5.50;4.57;;;12.70;99.50;;;;;;5050186;28;20447;-74
2021/03/27 00:48:00;;;;;;;5.63;4.37;;;12.70;99.40;;;;;;5050621;28;20590;-74
2021/03/27 00:50:32;;;;;;;5.43;4.60;;;12.70;99.60;;;;;;5049709;28;20566;-74
2021/03/27 00:53:06;;;;;;;6.90;4.63;;;12.70;99.80;;;;;;5050270;28;20497;-72
2021/03/27 00:55:36;;;;;;;11.50;4.57;;;12.60;99.90;;;;;;5050037;28;20946;-73
2021/03/27 00:58:10;;;;;;;7.53;4.97;;;12.60;99.90;;;;;;5050174;28;20459;-72
2021/03/27 01:00:40;;;;;;;5.27;4.63;;;12.50;99.90;;;;;;5049528;28;20523;-72
2021/03/27 01:03:10;;;;;;;5.70;4.47;;;12.50;99.90;;;;;;5050297;28;20531;-72
2021/03/27 01:05:38;;;;;;;5.10;3.90;;;12.40;99.90;;;;;;5050308;28;20560;-73
2021/03/27 01:08:11;;;;;;;5.00;3.80;;;12.50;99.90;;;;;;5049689;28;20590;-73
2021/03/27 01:10:43;;;;;;;6.40;4.97;;;12.40;99.90;;;;;;5041681;28;20574;-72
2021/03/27 01:13:17;;;;;;;6.23;4.20;;;12.40;99.90;;;;;;5045551;28;21182;-73
2021/03/27 01:15:46;;;;;;;7.30;4.53;;;12.40;99.90;;;;;;5050016;28;20519;-73
2021/03/27 01:18:19;;;;;;;4.47;4.00;;;12.30;99.90;;;;;;5051214;28;20526;-73
2021/03/27 01:20:48;;;;;;;5.87;4.57;;;12.30;99.90;;;;;;5050682;28;20535;-78
2021/03/27 01:23:17;;;;;;;6.90;4.60;;;12.20;99.90;;;;;;5051180;28;20463;-75
2021/03/27 01:25:43;;;;;;;4.60;4.10;;;12.30;99.90;;;;;;5050826;28;20480;-74
2021/03/27 01:28:17;;;;;;;5.20;4.33;;;12.20;99.90;;;;;;5051117;28;20511;-74
2021/03/27 01:30:46;;;;;;;5.87;5.10;;;12.20;99.90;;;;;;5050913;28;20490;-74
2021/03/27 01:33:20;;;;;;;5.33;4.50;;;12.20;99.90;;;;;;5055241;28;20508;-73
2021/03/27 01:35:53;;;;;;;5.63;4.40;;;12.20;99.90;;;;;;5054424;28;20435;-74
2021/03/27 01:38:25;;;;;;;5.37;4.30;;;12.20;99.90;;;;;;5053271;28;20534;-74
2021/03/27 01:41:04;;;;;;;6.33;4.70;;;12.10;99.90;;;;;;5054050;28;20468;-74
2021/03/27 01:43:36;;;;;;;6.53;4.87;;;12.10;99.90;;;;;;5055009;28;20911;-73
2021/03/27 01:46:33;;;;;;;5.43;4.27;;;12.10;99.90;;;;;;5055055;28;20542;-72
2021/03/27 01:49:10;;;;;;;5.03;4.50;;;12.00;99.90;;;;;;5055046;28;20448;-71
2021/03/27 01:51:56;;;;;;;4.70;4.07;;;11.90;99.90;;;;;;5055182;28;20602;-71
2021/03/27 01:54:27;;;;;;;6.00;4.23;;;11.80;99.90;;;;;;5055367;28;20541;-71
2021/03/27 01:57:11;;;;;;;7.27;4.43;;;11.70;99.90;;;;;;5065625;23;20545;-71
2021/03/27 01:59:44;;;;;;;6.43;4.50;;;11.50;99.90;;;;;;5052249;28;21025;-71
2021/03/27 02:02:18;;;;;;;5.63;4.97;;;11.30;99.90;;;;;;5060058;28;20893;-71
2021/03/27 02:04:52;;;;;;;6.40;4.40;;;11.10;99.90;;;;;;5052566;28;20486;-71
2021/03/27 02:07:23;;;;;;;5.93;5.33;;;11.00;99.90;;;;;;5055440;28;20516;-72
2021/03/27 02:10:00;;;;;;;9.90;6.10;;;10.80;99.90;;;;;;5063006;23;20575;-71
2021/03/27 02:12:36;;;;;;;7.17;4.90;;;10.70;99.90;;;;;;5046226;28;20950;-71
2021/03/27 02:15:10;;;;;;;6.50;5.30;;;10.60;99.90;;;;;;5054130;28;20490;-71
2021/03/27 02:17:44;;;;;;;8.10;5.43;;;10.50;99.90;;;;;;5054147;28;20551;-71
2021/03/27 02:20:58;;;;;;;6.23;4.67;;;10.40;99.90;;;;;;5053455;28;20491;-71
2021/03/27 02:23:37;;;;;;;7.00;6.07;;;10.30;99.90;;;;;;5019143;28;20718;-71
2021/03/27 02:26:20;;;;;;;8.70;5.63;;;10.20;99.90;;;;;;5054287;28;20463;-71
2021/03/27 02:29:27;;;;;;;8.00;6.03;;;10.20;99.90;;;;;;5044462;28;20951;-71
2021/03/27 02:31:59;;;;;;;7.40;6.10;;;10.10;99.90;;;;;;5033951;28;20773;-71
2021/03/27 02:34:34;;;;;;;9.40;6.20;;;10.10;99.90;;;;;;5039465;28;20800;-72
2021/03/27 02:37:05;;;;;;;7.53;6.30;;;10.10;99.90;;;;;;5033938;28;20472;-71
2021/03/27 02:39:40;;;;;;;8.53;7.03;;;10.10;99.90;;;;;;5038720;28;21024;-71
2021/03/27 02:42:16;;;;;;;7.70;6.17;;;10.00;99.90;;;;;;5034134;28;20519;-71
2021/03/27 02:44:48;;;;;;;10.30;7.00;;;10.00;99.90;;;;;;5034213;28;20531;-71
2021/03/27 02:47:40;;;;;;;8.50;6.90;;;9.90;99.90;;;;;;5033507;28;20524;-71
2021/03/27 02:50:23;;;;;;;7.33;6.37;;;9.90;99.90;;;;;;5033035;28;20566;-71
2021/03/27 02:53:00;;;;;;;9.40;6.27;;;9.90;99.90;;;;;;5033092;28;20511;-71
2021/03/27 02:55:34;;;;;;;9.63;7.30;;;9.90;99.90;;;;;;5033978;28;20499;-71
2021/03/27 02:58:09;;;;;;;7.90;6.50;;;9.90;99.90;;;;;;5038007;28;20526;-71
2021/03/27 03:00:43;;;;;;;9.00;6.30;;;9.80;99.90;;;;;;5038320;28;20460;-71
2021/03/27 03:03:19;;;;;;;9.17;6.50;;;9.80;99.90;;;;;;5035729;28;20448;-71
2021/03/27 03:05:49;;;;;;;8.90;7.00;;;9.80;99.90;;;;;;5029683;28;21032;-71
2021/03/27 03:08:23;;;;;;;10.20;6.60;;;9.80;99.90;;;;;;5033267;28;20802;-71
2021/03/27 03:10:58;;;;;;;8.13;5.67;;;9.80;99.90;;;;;;5032757;28;20571;-71
2021/03/27 03:13:33;;;;;;;8.17;6.40;;;9.90;99.90;;;;;;5033359;28;20570;-71
2021/03/27 03:16:10;;;;;;;8.00;6.60;;;9.80;99.90;;;;;;5033293;28;20543;-71
2021/03/27 03:18:44;;;;;;;6.80;5.57;;;9.80;99.90;;;;;;5033023;28;20528;-71
2021/03/27 03:21:18;;;;;;;6.53;5.70;;;9.80;99.90;;;;;;5032643;28;20703;-71
2021/03/27 03:23:57;;;;;;;6.73;6.07;;;9.80;99.90;;;;;;5033025;28;20877;-71
2021/03/27 03:26:35;;;;;;;6.97;5.37;;;9.90;99.90;;;;;;5032693;28;20976;-71
2021/03/27 03:29:12;;;;;;;6.73;4.53;;;9.90;99.90;;;;;;5032529;28;20529;-71
2021/03/27 03:31:49;;;;;;;5.90;5.20;;;10.00;99.90;;;;;;5032447;28;20480;-71
2021/03/27 03:34:35;;;;;;;7.20;5.23;;;10.00;99.90;;;;;;5032737;28;20555;-71
2021/03/27 03:37:07;;;;;;;6.70;5.17;;;10.00;99.90;;;;;;5032706;28;20473;-71
2021/03/27 03:39:56;;;;;;;6.43;4.73;;;10.10;99.90;;;;;;5032159;28;20476;-71
2021/03/27 03:43:08;;;;;;;5.50;4.37;;;10.10;99.90;;;;;;5029058;28;20544;-71
2021/03/27 03:45:44;;;;;;;5.80;4.50;;;10.10;99.90;;;;;;5012366;28;20536;-71
2021/03/27 03:48:25;;;;;;;2.83;2.10;;;10.10;99.90;;;;;;5032509;28;20480;-72
2021/03/27 03:50:57;;;;;;;3.13;2.53;;;9.80;99.90;;;;;;5031977;28;21032;-72
2021/03/27 03:53:32;;;;;;;2.67;1.97;;;9.30;99.90;;;;;;5032506;28;20524;-71
2021/03/27 03:56:16;;;;;;;2.50;1.20;;;8.90;99.90;;;;;;5031921;28;20476;-71
2021/03/27 03:58:57;;;;;;;2.07;1.43;;;8.70;99.90;;;;;;5032533;28;20759;-71
2021/03/27 04:01:39;;;;;;;4.40;1.30;;;8.60;99.90;;;;;;5031984;28;20483;-71
2021/03/27 04:04:08;;;;;;;1.90;1.10;;;8.60;99.90;;;;;;5031249;28;20532;-71
2021/03/27 04:06:39;;;;;;;1.93;1.00;;;8.60;99.90;;;;;;5031759;28;20591;-71
2021/03/27 04:09:13;;;;;;;2.13;0.80;;;8.50;99.90;;;;;;5031821;28;20539;-71
2021/03/27 04:11:50;;;;;;;1.77;0.87;;;8.50;99.90;;;;;;5031709;28;20619;-71
2021/03/27 04:14:27;;;;;;;1.83;1.10;;;8.50;99.90;;;;;;5031861;28;20524;-71
2021/03/27 04:17:02;;;;;;;2.17;1.00;;;8.60;99.90;;;;;;5031765;28;20473;-71
2021/03/27 04:19:30;;;;;;;1.93;0.80;;;8.60;99.90;;;;;;5032571;28;21056;-72
2021/03/27 04:22:09;;;;;;;2.10;1.10;;;8.60;99.90;;;;;;5031402;28;21009;-71
2021/03/27 04:24:59;;;;;;;1.90;1.03;;;8.50;99.90;;;;;;5160972;27;20500;-72
2021/03/27 04:27:30;;;;;;;1.70;0.93;;;8.50;99.90;;;;;;5153271;27;20475;-72
2021/03/27 04:30:13;;;;;;;1.97;0.83;;;8.60;99.90;;;;;;5149352;27;20455;-72
2021/03/27 04:32:45;;;;;;;2.20;0.70;;;8.50;99.90;;;;;;5149530;27;20519;-71
2021/03/27 04:35:34;;;;;;;2.80;1.00;;;8.50;99.90;;;;;;5149719;27;20518;-72
2021/03/27 04:38:14;;;;;;;1.43;0.90;;;8.50;99.90;;;;;;5150354;27;21015;-72
2021/03/27 04:40:45;;;;;;;2.33;1.07;;;8.50;99.90;;;;;;5149522;27;20455;-72
2021/03/27 04:43:19;;;;;;;2.90;1.00;;;8.40;99.90;;;;;;5150003;27;20562;-72
2021/03/27 04:45:50;;;;;;;4.00;1.10;;;8.30;99.90;;;;;;5143882;27;20480;-71
2021/03/27 04:48:28;;;;;;;1.67;0.80;;;8.30;99.90;;;;;;5127645;28;20544;-72
2021/03/27 04:51:13;;;;;;;2.00;0.70;;;8.20;99.90;;;;;;5128582;28;20854;-72
2021/03/27 04:53:47;;;;;;;1.40;0.70;;;8.20;99.90;;;;;;5108864;28;20487;-71
2021/03/27 04:56:19;;;;;;;1.60;0.83;;;8.10;99.90;;;;;;5117743;28;20584;-70
2021/03/27 04:58:53;;;;;;;2.57;0.80;;;8.10;99.90;;;;;;5128626;28;21020;-72
2021/03/27 05:01:37;;;;;;;2.47;1.10;;;8.00;99.90;;;;;;5129128;28;20566;-72
2021/03/27 05:04:10;;;;;;;1.90;1.00;;;7.90;99.90;;;;;;5129935;28;20566;-71
2021/03/27 05:06:40;;;;;;;1.70;1.30;;;7.80;99.90;;;;;;5131294;28;20495;-72
2021/03/27 05:09:27;;;;;;;2.83;1.10;;;7.80;99.90;;;;;;5130964;28;20861;-72
2021/03/27 05:11:59;;;;;;;1.80;1.00;;;7.80;99.90;;;;;;5130527;27;20945;-72
2021/03/27 05:14:45;;;;;;;2.47;1.30;;;7.80;99.90;;;;;;5131315;28;20476;-72
2021/03/27 05:17:19;;;;;;;1.43;0.70;;;7.70;99.90;;;;;;5130694;28;20464;-72
2021/03/27 05:19:53;;;;;;;1.60;0.90;;;7.70;99.90;;;;;;5131248;28;20909;-72
2021/03/27 05:22:46;;;;;;;2.80;0.90;;;7.70;99.90;;;;;;5130140;28;20523;-72
2021/03/27 05:25:26;;;;;;;1.70;0.80;;;7.70;99.90;;;;;;5129595;28;20508;-72
2021/03/27 05:28:15;;;;;;;1.93;1.00;;;7.70;99.90;;;;;;5129818;28;20523;-71
2021/03/27 05:30:48;;;;;;;2.30;1.23;;;7.70;99.90;;;;;;5130343;28;20893;-71
2021/03/27 05:33:33;;;;;;;2.30;1.13;;;7.70;99.90;;;;;;5130267;28;20483;-71
2021/03/27 05:36:20;;;;;;;1.73;1.03;;;7.60;99.90;;;;;;5117453;28;20524;-71
2021/03/27 05:38:53;;;;;;;1.90;0.97;;;7.60;99.90;;;;;;5116506;28;20459;-71
2021/03/27 05:41:46;;;;;;;2.03;1.33;;;7.60;99.90;;;;;;5116966;28;20473;-71
2021/03/27 05:44:49;;;;;;;2.20;1.03;;;7.60;99.90;;;;;;5115575;28;20567;-71
2021/03/27 05:47:59;;;;;;;1.80;1.20;;;7.50;99.90;;;;;;5115660;28;20883;-71
2021/03/27 05:50:57;;;;;;;3.33;1.10;;;7.50;99.90;;;;;;5116276;28;20547;-71
2021/03/27 05:53:52;;;;;;;1.57;1.00;;;7.50;99.90;;;;;;5116634;28;20469;-71
2021/03/27 05:56:55;;;;;;;1.77;1.00;;;7.50;99.90;;;;;;5102770;28;20484;-71
2021/03/27 05:59:54;;;;;;;1.50;0.77;;;7.40;99.90;;;;;;5116325;28;20988;-71
2021/03/27 06:02:39;;;;;;;1.40;0.90;;;7.30;99.90;;;;;;5086295;27;20488;-70
2021/03/27 06:05:37;;;;;;;2.00;1.50;;;7.30;99.90;;;;;;5114190;28;20893;-71
2021/03/27 06:08:28;;;;;;;1.43;0.83;;;7.20;99.90;;;;;;5054188;22;20903;-77
2021/03/27 06:11:22;;;;;;;1.47;0.80;;;7.10;99.90;;;;;;5052165;28;20933;-77
2021/03/27 06:14:14;;;;;;;2.13;1.30;;;7.10;99.90;;;;;;5052780;28;20527;-77
2021/03/27 06:17:05;;;;;;;1.50;0.80;;;7.20;99.90;;;;;;5053154;28;20575;-77
2021/03/27 06:20:15;;;;;;;1.90;1.00;;;7.30;99.90;;;;;;5052502;28;20448;-77
2021/03/27 06:23:10;;;;;;;1.93;0.90;;;7.40;99.90;;;;;;5052391;28;20440;-77
2021/03/27 06:25:52;;;;;;;2.27;0.90;;;7.40;99.90;;;;;;5038736;28;20543;-77
2021/03/27 06:28:48;;;;;;;1.90;1.00;;;7.50;99.90;;;;;;5052361;28;20468;-77
2021/03/27 06:31:27;;;;;;;1.87;1.00;;;7.60;99.90;;;;;;5052325;28;20547;-77
2021/03/27 06:34:45;;;;;;;3.53;1.00;;;7.60;99.90;;;;;;5053139;28;20475;-77
2021/03/27 06:37:53;;;;;;;2.80;0.70;;;7.50;99.90;;;;;;5009883;28;20910;-77
2021/03/27 06:41:16;;;;;;;2.57;1.10;;;7.60;99.90;;;;;;5009762;28;20456;-77
2021/03/27 06:44:08;;;;;;;2.13;0.93;;;7.50;99.90;;;;;;4975750;28;20565;-77
2021/03/27 06:46:54;;;;;;;2.33;1.10;;;7.60;99.90;;;;;;4990552;28;21016;-77
2021/03/27 06:49:58;;;;;;;2.90;1.00;;;7.60;99.90;;;;;;5043298;28;20506;-77
2021/03/27 06:53:15;;;;;;;1.60;0.90;;;7.70;99.90;;;;;;5052202;28;20475;-78
2021/03/27 06:56:06;;;;;;;2.43;1.00;;;7.80;99.90;;;;;;5051842;28;20479;-78
2021/03/27 06:59:01;;;;;;;3.23;1.13;;;7.90;99.90;;;;;;5044926;28;20508;-78
2021/03/27 07:02:00;;;;;;;6.37;1.43;;;8.10;99.90;;;;;;5051622;28;20447;-77
2021/03/27 07:04:49;;;;;;;5.70;1.10;;;8.40;99.90;;;;;;5051826;28;20560;-77
2021/03/27 07:07:35;;;;;;;2.27;0.90;;;8.50;99.90;;;;;;5051717;28;20606;-78
2021/03/27 07:10:49;;;;;;;1.60;1.00;;;8.50;99.90;;;;;;5051381;28;20451;-78
2021/03/27 07:13:37;;;;;;;3.73;1.10;;;8.40;99.90;;;;;;4970313;28;20542;-78
2021/03/27 07:16:25;;;;;;;2.87;1.10;;;8.40;99.90;;;;;;5051624;28;20927;-77
2021/03/27 07:19:31;;;;;;;1.77;0.80;;;8.60;99.90;;;;;;5051385;28;20440;-78
2021/03/27 07:22:20;;;;;;;1.97;1.10;;;8.60;99.90;;;;;;5051601;28;20482;-78
2021/03/27 07:25:10;;;;;;;2.63;0.90;;;8.70;99.90;;;;;;5051894;28;20480;-79
2021/03/27 07:27:57;;;;;;;1.90;1.03;;;8.70;99.90;;;;;;5044463;28;20547;-78
2021/03/27 07:31:14;;;;;;;2.03;1.07;;;8.40;99.90;;;;;;5051596;28;20444;-78
2021/03/27 07:33:59;;;;;;;1.57;0.80;;;8.20;99.90;;;;;;4974631;28;20536;-75
2021/03/27 07:37:20;;;;;;;2.97;1.30;;;8.30;99.90;;;;;;5038198;28;20539;-75
2021/03/27 07:40:09;;;;;;;2.70;0.73;;;8.30;99.90;;;;;;5044554;28;21323;-78
2021/03/27 07:42:58;;;;;;;3.83;1.87;;;8.20;99.90;;;;;;5051979;28;20472;-77
2021/03/27 07:45:49;;;;;;;3.20;1.10;;;8.10;99.90;;;;;;5044387;28;20472;-71
2021/03/27 07:48:47;;;;;;;2.17;1.10;;;8.00;99.90;;;;;;5042369;28;20550;-78
2021/03/27 07:51:46;;;;;;;2.27;0.87;;;8.10;99.90;;;;;;5045470;28;20989;-76
2021/03/27 07:54:49;;;;;;;1.80;0.90;;;8.20;99.90;;;;;;5049849;28;20969;-77
2021/03/27 07:57:50;;;;;;;4.13;0.90;;;8.30;99.90;;;;;;5031623;28;20492;-76
2021/03/27 08:00:37;;;;;;;2.00;0.90;;;8.50;99.90;;;;;;5046190;28;20446;-78
2021/03/27 08:03:42;;;;;;;1.90;1.00;;;8.50;99.90;;;;;;5045835;28;20562;-77
2021/03/27 08:06:29;;;;;;;2.30;0.80;;;8.50;99.90;;;;;;4978611;28;20522;-77
2021/03/27 08:09:17;;;;;;;2.57;0.80;;;8.60;99.90;;;;;;5051360;28;20539;-79
2021/03/27 08:12:13;;;;;;;3.10;0.90;;;8.60;99.90;;;;;;5049593;28;20475;-79
2021/03/27 08:15:02;;;;;;;1.47;0.87;;;8.70;99.90;;;;;;5046327;28;20515;-79
2021/03/27 08:17:55;;;;;;;1.67;0.80;;;8.90;99.90;;;;;;5054028;28;20571;-78
2021/03/27 08:20:55;;;;;;;1.90;0.77;;;9.00;99.90;;;;;;5053240;28;20436;-78
2021/03/27 08:23:43;;;;;;;2.60;0.80;;;8.90;99.90;;;;;;5054999;28;20935;-78
2021/03/27 08:26:35;;;;;;;1.63;0.97;;;9.00;99.90;;;;;;5055183;28;20464;-78
2021/03/27 08:29:42;;;;;;;2.93;0.93;;;9.00;99.90;;;;;;5053138;28;20569;-78
2021/03/27 08:32:47;;;;;;;2.30;0.80;;;9.00;99.90;;;;;;5035967;28;20451;-80
2021/03/27 08:35:34;;;;;;;1.70;0.83;;;8.70;99.90;;;;;;5039669;28;20990;-78
2021/03/27 08:38:31;;;;;;;5.23;1.00;;;8.70;99.90;;;;;;5053914;28;20496;-81
2021/03/27 08:41:23;;;;;;;3.63;0.70;;;8.90;99.90;;;;;;5050258;28;20458;-78
2021/03/27 08:44:43;;;;;;;3.00;1.00;;;9.00;99.90;;;;;;5053153;28;20581;-78
2021/03/27 08:47:42;;;;;;;2.23;1.27;;;9.00;99.90;;;;;;5025989;28;21050;-79
2021/03/27 08:50:45;;;;;;;4.03;1.10;;;9.10;99.90;;;;;;5043833;28;20520;-77
2021/03/27 08:53:41;;;;;;;2.50;0.77;;;9.20;99.90;;;;;;5029369;28;20531;-78
2021/03/27 08:56:39;;;;;;;3.07;1.27;;;9.30;99.60;;;;;;5051584;28;20515;-78
2021/03/27 08:59:31;;;;;;;4.77;1.00;;;9.50;99.90;;;;;;5046820;28;20530;-77
2021/03/27 09:02:26;;;;;;;2.10;0.70;;;9.50;98.60;;;;;;5038049;28;20472;-78
2021/03/27 09:05:13;;;;;;;3.67;0.90;;;9.40;99.00;;;;;;5050229;28;20515;-79
2021/03/27 09:08:17;;;;;;;1.87;1.00;;;9.70;98.30;;;;;;5052386;28;20913;-78
2021/03/27 09:11:03;;;;;;;4.03;1.13;;;10.00;97.70;;;;;;5048982;28;20455;-79
2021/03/27 09:14:14;;;;;;;1.83;0.87;;;10.10;96.50;;;;;;5054372;28;20440;-80
2021/03/27 09:17:22;;;;;;;2.30;0.80;;;10.50;95.90;;;;;;5045744;28;21005;-80
2021/03/27 09:20:22;;;;;;;2.53;0.80;;;10.70;94.40;;;;;;5052572;28;20519;-79
2021/03/27 09:23:01;;;;;;;2.50;0.67;;;10.80;93.50;;;;;;5053895;28;20475;-79
2021/03/27 09:25:54;;;;;;;1.70;0.70;;;10.90;92.40;;;;;;5058016;28;20514;-80
2021/03/27 09:28:28;;;;;;;1.57;0.70;;;11.10;91.70;;;;;;5048590;28;20491;-79
2021/03/27 09:31:05;;;;;;;3.77;0.77;;;11.30;91.20;;;;;;5054947;28;20558;-78
2021/03/27 09:33:39;;;;;;;1.63;0.60;;;11.20;90.20;;;;;;5056649;28;20598;-77
2021/03/27 09:36:19;;;;;;;1.80;0.80;;;11.30;90.60;;;;;;5052935;28;20997;-77
2021/03/27 09:38:59;;;;;;;1.90;0.80;;;11.40;87.60;;;;;;5050529;28;20443;-77
2021/03/27 09:41:53;;;;;;;1.60;0.70;;;11.30;87.50;;;;;;5054340;28;20432;-78
2021/03/27 09:45:01;;;;;;;1.77;0.80;;;11.20;91.00;;;;;;5048241;28;21023;-77
2021/03/27 09:47:59;;;;;;;2.47;0.70;;;11.60;87.50;;;;;;5047509;28;20507;-80
2021/03/27 09:50:35;;;;;;;2.30;0.70;;;11.50;89.20;;;;;;5052875;28;20504;-81
2021/03/27 09:53:04;;;;;;;2.33;0.70;;;11.70;86.60;;;;;;5059457;28;20447;-80
2021/03/27 09:55:50;;;;;;;3.03;0.93;;;11.60;86.70;;;;;;5059357;28;20444;-80
2021/03/27 09:58:40;;;;;;;2.07;0.77;;;11.30;86.40;;;;;;5053395;28;20550;-76
2021/03/27 10:01:24;;;;;;;1.70;0.77;;;11.20;86.90;;;;;;5048465;28;20479;-75
2021/03/27 10:04:03;;;;;;;3.20;0.70;;;11.20;85.70;;;;;;5046676;28;20570;-76
2021/03/27 10:07:06;;;;;;;2.37;0.80;;;11.20;85.00;;;;;;5053664;28;20527;-75
2021/03/27 10:09:48;;;;;;;2.33;0.70;;;11.20;86.30;;;;;;5052405;28;20535;-75
2021/03/27 10:12:20;;;;;;;3.63;1.20;;;11.50;85.80;;;;;;5052569;28;20472;-76
2021/03/27 10:14:53;;;;;;;2.23;0.93;;;11.80;83.20;;;;;;5052873;28;20452;-75
2021/03/27 10:17:27;;;;;;;1.70;0.90;;;11.70;83.00;;;;;;5052904;28;20558;-76
2021/03/27 10:20:00;;;;;;;2.07;0.60;;;11.80;83.30;;;;;;5030831;28;20555;-75
2021/03/27 10:22:41;;;;;;;3.30;1.30;;;11.90;81.60;;;;;;5032195;28;20452;-78
2021/03/27 10:25:17;;;;;;;3.27;0.70;;;11.80;80.70;;;;;;5033299;28;20960;-77
2021/03/27 10:27:52;;;;;;;2.17;0.83;;;11.50;80.20;;;;;;5035276;28;20463;-76
2021/03/27 10:30:30;;;;;;;2.37;0.70;;;11.50;80.80;;;;;;5051742;28;20436;-76
2021/03/27 10:33:07;;;;;;;1.77;0.70;;;11.70;80.30;;;;;;5052001;28;21012;-77
2021/03/27 10:36:08;;;;;;;1.63;0.90;;;12.10;81.20;;;;;;5052153;28;20526;-77
2021/03/27 10:38:54;;;;;;;4.70;1.20;;;12.60;79.10;;;;;;5052479;28;20488;-77
2021/03/27 10:41:25;;;;;;;2.33;0.97;;;12.30;79.10;;;;;;5050644;28;20478;-77
2021/03/27 10:44:01;;;;;;;1.83;0.90;;;12.30;79.40;;;;;;5051614;28;20900;-76
2021/03/27 10:46:38;;;;;;;2.17;0.90;;;11.80;76.80;;;;;;5048048;28;20446;-77
2021/03/27 10:49:27;;;;;;;2.70;1.00;;;11.80;78.50;;;;;;5047944;28;20526;-75
2021/03/27 10:52:44;;;;;;;1.73;0.90;;;11.80;77.70;;;;;;5041410;28;20818;-76
2021/03/27 10:55:59;;;;;;;2.40;0.90;;;12.10;80.40;;;;;;5051498;28;20914;-75
2021/03/27 10:58:48;;;;;;;2.20;0.87;;;12.40;77.80;;;;;;5050052;28;20471;-76
2021/03/27 11:02:00;;;;;;;2.90;1.10;;;12.30;78.50;;;;;;5049763;28;20502;-76
2021/03/27 11:04:54;;;;;;;3.53;0.93;;;12.40;78.80;;;;;;5049835;28;20467;-76
2021/03/27 11:07:47;;;;;;;2.27;0.80;;;11.90;78.40;;;;;;5036069;28;20479;-76
2021/03/27 11:10:57;;;;;;;2.80;0.90;;;12.00;77.40;;;;;;5007028;28;20444;-76
2021/03/27 11:14:01;;;;;;;1.80;1.00;;;12.20;80.10;;;;;;5045592;28;20511;-75
2021/03/27 11:17:11;;;;;;;1.80;0.90;;;12.40;77.70;;;;;;5048777;28;21135;-77
2021/03/27 11:20:22;;;;;;;2.50;1.10;;;12.50;73.80;;;;;;5022496;28;20463;-76
2021/03/27 11:23:34;;;;;;;2.87;1.03;;;12.80;74.50;;;;;;5048720;28;20525;-77
2021/03/27 11:26:36;;;;;;;2.73;1.03;;;12.50;74.40;;;;;;5047398;28;20444;-77
2021/03/27 11:29:27;;;;;;;2.87;1.00;;;12.50;75.20;;;;;;5048544;28;20614;-78
2021/03/27 11:32:00;;;;;;;2.57;0.80;;;12.80;74.10;;;;;;5053869;28;20494;-79
2021/03/27 11:34:34;;;;;;;3.23;1.20;;;12.50;74.30;;;;;;5055847;28;20951;-79
2021/03/27 11:37:07;;;;;;;5.70;1.10;;;11.90;76.70;;;;;;5055405;28;20521;-77
2021/03/27 11:39:43;;;;;;;3.50;1.10;;;12.30;77.00;;;;;;5031056;28;20523;-77
2021/03/27 11:42:26;;;;;;;2.70;0.90;;;12.20;76.40;;;;;;5034010;28;20516;-78
2021/03/27 11:45:00;;;;;;;3.60;0.90;;;11.80;79.10;;;;;;5034028;28;20555;-77
2021/03/27 11:47:35;;;;;;;2.70;0.80;;;11.30;77.00;;;;;;5051513;28;20540;-77
2021/03/27 11:50:18;;;;;;;4.23;1.20;;;10.90;78.00;;;;;;5051058;28;20479;-74
2021/03/27 11:52:49;;;;;;;3.10;1.00;;;10.80;79.50;;;;;;5051047;28;20436;-75
2021/03/27 11:55:23;;;;;;;2.07;0.90;;;11.10;80.00;;;;;;5051920;28;20477;-74
2021/03/27 11:57:55;;;;;;;3.90;1.27;;;11.60;78.60;;;;;;5050608;28;20498;-73
2021/03/27 12:00:47;;;;;;;2.97;1.10;;;12.30;77.70;;;;;;5050583;28;20458;-73
2021/03/27 12:03:21;;;;;;;2.50;0.97;;;13.50;74.50;;;;;;5049911;28;20444;-74
2021/03/27 12:05:53;;;;;;;3.03;1.40;;;14.40;72.10;;;;;;5051092;28;20529;-74
2021/03/27 12:08:28;;;;;;;4.37;0.93;;;15.30;71.80;;;;;;5050760;28;20516;-75
2021/03/27 12:11:04;;;;;;;2.97;1.57;;;15.20;68.90;;;;;;5051574;28;21073;-78
2021/03/27 12:13:38;;;;;;;3.80;1.13;;;15.20;68.80;;;;;;5060969;28;20832;-78
2021/03/27 12:16:28;;;;;;;2.20;1.00;;;15.30;66.20;;;;;;5059905;28;20507;-79
2021/03/27 12:19:25;;;;;;;4.13;1.20;;;15.90;66.90;;;;;;5057948;28;20471;-79
2021/03/27 12:22:00;;;;;;;3.90;1.20;;;16.30;64.20;;;;;;5053080;28;20444;-78
2021/03/27 12:24:47;;;;;;;4.20;1.50;;;16.20;65.10;;;;;;5055271;28;20474;-79
2021/03/27 12:27:26;;;;;;;4.47;1.30;;;16.90;66.10;;;;;;5053653;28;20478;-78
2021/03/27 12:30:13;;;;;;;2.27;0.90;;;16.80;64.40;;;;;;5052886;28;20528;-76
2021/03/27 12:32:51;;;;;;;2.53;0.80;;;14.90;62.80;;;;;;5054308;28;20502;-77
2021/03/27 12:35:28;;;;;;;2.37;1.30;;;13.90;63.60;;;;;;5054310;28;20483;-78
2021/03/27 12:38:22;;;;;;;2.43;0.80;;;13.10;65.00;;;;;;5050815;28;21070;-77
2021/03/27 12:41:04;;;;;;;1.80;0.90;;;13.40;68.40;;;;;;5048679;28;20535;-76
2021/03/27 12:43:34;;;;;;;4.80;1.60;;;13.10;64.20;;;;;;5051111;28;21060;-76
2021/03/27 12:46:17;;;;;;;1.73;0.90;;;12.40;66.80;;;;;;5053794;28;20534;-77
2021/03/27 12:49:05;;;;;;;4.77;1.63;;;12.20;67.00;;;;;;5055429;28;20977;-76
2021/03/27 12:51:42;;;;;;;2.90;1.50;;;12.00;68.30;;;;;;5053128;28;20534;-75
2021/03/27 12:54:30;;;;;;;2.80;1.70;;;12.00;70.00;;;;;;5052488;28;20493;-73
2021/03/27 12:57:12;;;;;;;7.63;1.00;;;11.90;72.60;;;;;;5053554;28;20601;-78
2021/03/27 12:59:51;;;;;;;3.60;1.90;;;11.80;73.70;;;;;;5051142;28;21175;-77
2021/03/27 13:03:03;;;;;;;2.30;1.20;;;12.90;73.40;;;;;;5048850;28;20447;-77
2021/03/27 13:05:35;;;;;;;2.43;1.10;;;14.00;68.40;;;;;;5053069;28;21207;-76
2021/03/27 13:08:16;;;;;;;2.33;0.90;;;13.60;66.60;;;;;;5040423;28;20555;-76
2021/03/27 13:11:11;;;;;;;2.90;0.80;;;12.60;65.80;;;;;;5050539;28;20585;-76
2021/03/27 13:14:07;;;;;;;7.43;1.10;;;12.30;67.50;;;;;;5049587;28;20453;-77
2021/03/27 13:16:45;;;;;;;1.90;0.87;;;12.40;68.80;;;;;;5052634;28;20956;-76
2021/03/27 13:19:22;;;;;;;3.07;1.23;;;12.40;68.90;;;;;;5049245;28;20518;-75
2021/03/27 13:22:16;;;;;;;2.43;1.10;;;12.80;69.00;;;;;;5050157;28;20516;-75
2021/03/27 13:25:17;;;;;;;2.37;1.03;;;12.60;67.80;;;;;;5052393;28;20483;-76
2021/03/27 13:27:49;;;;;;;2.13;0.90;;;12.50;67.40;;;;;;5051410;28;20493;-75
2021/03/27 13:30:24;;;;;;;2.07;0.83;;;12.40;67.60;;;;;;5052424;28;21180;-76
2021/03/27 13:33:13;;;;;;;2.23;0.87;;;12.30;69.00;;;;;;5052220;28;20518;-76
2021/03/27 13:36:09;;;;;;;4.30;1.70;;;12.20;69.30;;;;;;5051354;28;20531;-76
2021/03/27 13:38:44;;;;;;;3.60;0.93;;;12.20;70.80;;;;;;5055369;28;20468;-75
2021/03/27 13:41:42;;;;;;;2.30;1.30;;;11.90;70.20;;;;;;5053389;28;20917;-73
2021/03/27 13:44:20;;;;;;;3.60;0.90;;;11.70;69.90;;;;;;5051505;28;20494;-75
2021/03/27 13:46:59;;;;;;;4.47;1.70;;;11.90;71.90;;;;;;5052743;28;20565;-73
2021/03/27 13:49:35;;;;;;;2.90;1.20;;;12.20;71.30;;;;;;5053313;28;20472;-71
2021/03/27 13:52:09;;;;;;;2.93;1.30;;;13.30;69.50;;;;;;5064144;28;20515;-77
2021/03/27 13:54:48;;;;;;;2.43;1.37;;;14.30;68.60;;;;;;5073229;28;20517;-75
2021/03/27 13:57:23;;;;;;;4.60;1.83;;;15.40;64.20;;;;;;5069042;28;20507;-77
2021/03/27 13:59:59;;;;;;;2.70;1.07;;;15.40;63.80;;;;;;5056928;28;20473;-75
2021/03/27 14:02:50;;;;;;;2.60;1.30;;;14.90;63.90;;;;;;5057857;28;20468;-79
2021/03/27 14:05:41;;;;;;;4.80;1.10;;;15.30;63.30;;;;;;5053097;28;20506;-77
2021/03/27 14:08:15;;;;;;;2.97;1.27;;;15.50;64.30;;;;;;5055409;28;20555;-78
2021/03/27 14:10:46;;;;;;;2.90;1.50;;;15.30;64.20;;;;;;5056329;28;20791;-78
2021/03/27 14:13:18;;;;;;;4.40;1.57;;;15.10;64.60;;;;;;5056563;28;20947;-80
2021/03/27 14:15:48;;;;;;;1.97;0.87;;;15.20;63.80;;;;;;5055457;28;20470;-79
2021/03/27 14:18:42;;;;;;;4.10;1.30;;;15.60;62.00;;;;;;5055581;28;20503;-78